sensor_id;sensor_type;location;lat;lon;timestamp;P1;durP1;ratioP1;P2;durP2;ratioP2
31724;SDS011;18306;40.960;14.836;2023-05-10T00:01:16;10.05;;;6.03;;
31724;SDS011;18306;40.960;14.836;2023-05-10T00:03:43;12.40;;;6.78;;
31724;SDS011;18306;40.960;14.836;2023-05-10T00:06:10;16.05;;;7.45;;
31724;SDS011;18306;40.960;14.836;2023-05-10T00:08:38;14.30;;;6.93;;
31724;SDS011;18306;40.960;14.836;2023-05-10T00:11:05;8.15;;;5.35;;
31724;SDS011;18306;40.960;14.836;2023-05-10T00:13:32;11.77;;;5.85;;
31724;SDS011;18306;40.960;14.836;2023-05-10T00:15:59;12.52;;;7.38;;
31724;SDS011;18306;40.960;14.836;2023-05-10T00:18:26;13.88;;;6.63;;
31724;SDS011;18306;40.960;14.836;2023-05-10T00:20:53;13.13;;;7.28;;
31724;SDS011;18306;40.960;14.836;2023-05-10T00:23:20;19.13;;;6.82;;
31724;SDS011;18306;40.960;14.836;2023-05-10T00:25:47;12.77;;;6.90;;
31724;SDS011;18306;40.960;14.836;2023-05-10T00:28:14;11.25;;;6.78;;
31724;SDS011;18306;40.960;14.836;2023-05-10T00:30:41;12.02;;;6.78;;
31724;SDS011;18306;40.960;14.836;2023-05-10T00:33:08;14.65;;;7.57;;
31724;SDS011;18306;40.960;14.836;2023-05-10T00:35:35;17.90;;;7.35;;
31724;SDS011;18306;40.960;14.836;2023-05-10T00:38:02;13.52;;;7.60;;
31724;SDS011;18306;40.960;14.836;2023-05-10T00:40:29;14.02;;;7.72;;
31724;SDS011;18306;40.960;14.836;2023-05-10T00:43:05;11.45;;;6.88;;
31724;SDS011;18306;40.960;14.836;2023-05-10T00:45:44;15.10;;;6.45;;
31724;SDS011;18306;40.960;14.836;2023-05-10T00:48:28;17.83;;;7.80;;
31724;SDS011;18306;40.960;14.836;2023-05-10T00:51:09;14.98;;;7.70;;
31724;SDS011;18306;40.960;14.836;2023-05-10T00:53:36;13.40;;;7.25;;
31724;SDS011;18306;40.960;14.836;2023-05-10T00:56:04;13.07;;;7.32;;
31724;SDS011;18306;40.960;14.836;2023-05-10T00:58:31;20.55;;;9.20;;
31724;SDS011;18306;40.960;14.836;2023-05-10T01:00:59;18.45;;;8.07;;
31724;SDS011;18306;40.960;14.836;2023-05-10T01:03:27;11.02;;;7.05;;
31724;SDS011;18306;40.960;14.836;2023-05-10T01:05:55;13.65;;;7.88;;
31724;SDS011;18306;40.960;14.836;2023-05-10T01:08:22;16.33;;;8.40;;
31724;SDS011;18306;40.960;14.836;2023-05-10T01:10:50;11.60;;;6.80;;
31724;SDS011;18306;40.960;14.836;2023-05-10T01:13:27;13.00;;;6.80;;
31724;SDS011;18306;40.960;14.836;2023-05-10T01:16:04;11.85;;;6.72;;
31724;SDS011;18306;40.960;14.836;2023-05-10T01:18:33;8.70;;;6.28;;
31724;SDS011;18306;40.960;14.836;2023-05-10T01:32:30;12.45;;;7.22;;
31724;SDS011;18306;40.960;14.836;2023-05-10T01:40:44;13.95;;;5.95;;
31724;SDS011;18306;40.960;14.836;2023-05-10T01:43:30;13.30;;;7.05;;
31724;SDS011;18306;40.960;14.836;2023-05-10T01:46:10;11.15;;;6.95;;
31724;SDS011;18306;40.960;14.836;2023-05-10T01:49:19;7.85;;;6.63;;
31724;SDS011;18306;40.960;14.836;2023-05-10T01:51:53;13.70;;;8.07;;
31724;SDS011;18306;40.960;14.836;2023-05-10T01:54:26;11.70;;;7.70;;
31724;SDS011;18306;40.960;14.836;2023-05-10T01:57:02;8.40;;;6.30;;
31724;SDS011;18306;40.960;14.836;2023-05-10T01:59:34;9.40;;;6.65;;
31724;SDS011;18306;40.960;14.836;2023-05-10T02:02:03;15.57;;;7.00;;
31724;SDS011;18306;40.960;14.836;2023-05-10T02:04:31;11.27;;;6.45;;
31724;SDS011;18306;40.960;14.836;2023-05-10T02:07:03;12.65;;;7.28;;
31724;SDS011;18306;40.960;14.836;2023-05-10T02:09:33;12.98;;;6.43;;
31724;SDS011;18306;40.960;14.836;2023-05-10T02:12:01;11.00;;;7.13;;
31724;SDS011;18306;40.960;14.836;2023-05-10T02:14:32;18.02;;;7.80;;
31724;SDS011;18306;40.960;14.836;2023-05-10T02:17:02;15.20;;;8.18;;
31724;SDS011;18306;40.960;14.836;2023-05-10T02:19:32;12.48;;;8.00;;
31724;SDS011;18306;40.960;14.836;2023-05-10T02:22:02;14.65;;;8.10;;
31724;SDS011;18306;40.960;14.836;2023-05-10T02:24:32;14.27;;;8.55;;
31724;SDS011;18306;40.960;14.836;2023-05-10T02:27:01;12.57;;;7.53;;
31724;SDS011;18306;40.960;14.836;2023-05-10T02:29:29;13.43;;;8.38;;
31724;SDS011;18306;40.960;14.836;2023-05-10T02:31:58;19.80;;;10.25;;
31724;SDS011;18306;40.960;14.836;2023-05-10T02:34:26;13.75;;;9.57;;
31724;SDS011;18306;40.960;14.836;2023-05-10T02:36:54;15.70;;;8.23;;
31724;SDS011;18306;40.960;14.836;2023-05-10T02:39:22;11.82;;;7.72;;
31724;SDS011;18306;40.960;14.836;2023-05-10T02:41:51;15.15;;;7.05;;
31724;SDS011;18306;40.960;14.836;2023-05-10T02:44:19;15.07;;;9.30;;
31724;SDS011;18306;40.960;14.836;2023-05-10T02:46:48;22.90;;;9.02;;
31724;SDS011;18306;40.960;14.836;2023-05-10T02:49:15;16.58;;;9.38;;
31724;SDS011;18306;40.960;14.836;2023-05-10T02:51:47;17.50;;;9.77;;
31724;SDS011;18306;40.960;14.836;2023-05-10T02:54:18;15.95;;;9.38;;
31724;SDS011;18306;40.960;14.836;2023-05-10T02:57:22;18.95;;;10.63;;
31724;SDS011;18306;40.960;14.836;2023-05-10T02:59:42;21.35;;;10.18;;
31724;SDS011;18306;40.960;14.836;2023-05-10T03:02:09;19.30;;;9.88;;
31724;SDS011;18306;40.960;14.836;2023-05-10T03:04:37;23.10;;;10.68;;
31724;SDS011;18306;40.960;14.836;2023-05-10T03:07:04;14.85;;;9.82;;
31724;SDS011;18306;40.960;14.836;2023-05-10T03:09:32;15.50;;;9.63;;
31724;SDS011;18306;40.960;14.836;2023-05-10T03:14:40;19.92;;;8.35;;
31724;SDS011;18306;40.960;14.836;2023-05-10T03:17:36;19.70;;;9.45;;
31724;SDS011;18306;40.960;14.836;2023-05-10T03:20:29;22.88;;;9.57;;
31724;SDS011;18306;40.960;14.836;2023-05-10T03:23:07;14.63;;;9.18;;
31724;SDS011;18306;40.960;14.836;2023-05-10T03:25:40;20.90;;;10.35;;
31724;SDS011;18306;40.960;14.836;2023-05-10T03:28:11;22.65;;;11.10;;
31724;SDS011;18306;40.960;14.836;2023-05-10T03:30:39;18.38;;;9.80;;
31724;SDS011;18306;40.960;14.836;2023-05-10T03:33:07;21.30;;;9.55;;
31724;SDS011;18306;40.960;14.836;2023-05-10T03:35:38;17.40;;;9.05;;
31724;SDS011;18306;40.960;14.836;2023-05-10T03:38:06;18.40;;;9.00;;
31724;SDS011;18306;40.960;14.836;2023-05-10T03:40:33;24.17;;;9.60;;
31724;SDS011;18306;40.960;14.836;2023-05-10T03:43:00;22.58;;;9.77;;
31724;SDS011;18306;40.960;14.836;2023-05-10T03:45:27;14.10;;;8.52;;
31724;SDS011;18306;40.960;14.836;2023-05-10T03:47:54;12.98;;;8.55;;
31724;SDS011;18306;40.960;14.836;2023-05-10T03:50:21;18.90;;;9.15;;
31724;SDS011;18306;40.960;14.836;2023-05-10T03:52:48;19.95;;;9.52;;
31724;SDS011;18306;40.960;14.836;2023-05-10T03:55:16;17.48;;;8.98;;
31724;SDS011;18306;40.960;14.836;2023-05-10T03:57:44;14.18;;;8.90;;
31724;SDS011;18306;40.960;14.836;2023-05-10T04:00:11;13.85;;;8.40;;
31724;SDS011;18306;40.960;14.836;2023-05-10T04:02:41;17.27;;;9.00;;
31724;SDS011;18306;40.960;14.836;2023-05-10T04:05:11;18.67;;;11.07;;
31724;SDS011;18306;40.960;14.836;2023-05-10T04:07:38;17.80;;;9.52;;
31724;SDS011;18306;40.960;14.836;2023-05-10T04:10:06;16.05;;;9.45;;
31724;SDS011;18306;40.960;14.836;2023-05-10T04:12:33;15.75;;;9.30;;
31724;SDS011;18306;40.960;14.836;2023-05-10T04:15:00;23.50;;;10.50;;
31724;SDS011;18306;40.960;14.836;2023-05-10T04:17:28;24.85;;;9.57;;
31724;SDS011;18306;40.960;14.836;2023-05-10T04:19:55;13.73;;;7.95;;
31724;SDS011;18306;40.960;14.836;2023-05-10T04:22:22;17.17;;;9.52;;
31724;SDS011;18306;40.960;14.836;2023-05-10T04:24:49;17.27;;;9.55;;
31724;SDS011;18306;40.960;14.836;2023-05-10T04:27:16;20.77;;;9.35;;
31724;SDS011;18306;40.960;14.836;2023-05-10T04:29:43;19.08;;;10.32;;
31724;SDS011;18306;40.960;14.836;2023-05-10T04:32:10;21.98;;;10.90;;
31724;SDS011;18306;40.960;14.836;2023-05-10T04:34:37;18.33;;;11.60;;
31724;SDS011;18306;40.960;14.836;2023-05-10T04:37:04;19.60;;;10.73;;
31724;SDS011;18306;40.960;14.836;2023-05-10T04:39:31;22.63;;;10.93;;
31724;SDS011;18306;40.960;14.836;2023-05-10T04:41:59;21.33;;;10.40;;
31724;SDS011;18306;40.960;14.836;2023-05-10T04:44:26;19.60;;;9.95;;
31724;SDS011;18306;40.960;14.836;2023-05-10T04:46:53;18.65;;;11.52;;
31724;SDS011;18306;40.960;14.836;2023-05-10T04:49:19;25.60;;;12.23;;
31724;SDS011;18306;40.960;14.836;2023-05-10T04:51:46;22.00;;;11.65;;
31724;SDS011;18306;40.960;14.836;2023-05-10T04:54:13;16.58;;;10.18;;
31724;SDS011;18306;40.960;14.836;2023-05-10T04:56:40;15.70;;;9.98;;
31724;SDS011;18306;40.960;14.836;2023-05-10T04:59:07;16.48;;;9.95;;
31724;SDS011;18306;40.960;14.836;2023-05-10T05:01:35;20.00;;;11.25;;
31724;SDS011;18306;40.960;14.836;2023-05-10T05:04:01;27.33;;;10.80;;
31724;SDS011;18306;40.960;14.836;2023-05-10T05:06:29;15.57;;;9.90;;
31724;SDS011;18306;40.960;14.836;2023-05-10T05:08:56;22.88;;;9.38;;
31724;SDS011;18306;40.960;14.836;2023-05-10T05:11:23;18.98;;;10.45;;
31724;SDS011;18306;40.960;14.836;2023-05-10T05:13:51;16.88;;;9.93;;
31724;SDS011;18306;40.960;14.836;2023-05-10T05:16:18;14.23;;;9.90;;
31724;SDS011;18306;40.960;14.836;2023-05-10T05:18:45;17.20;;;10.65;;
31724;SDS011;18306;40.960;14.836;2023-05-10T05:21:15;16.92;;;9.40;;
31724;SDS011;18306;40.960;14.836;2023-05-10T05:23:43;24.85;;;10.43;;
31724;SDS011;18306;40.960;14.836;2023-05-10T05:26:10;19.60;;;11.57;;
31724;SDS011;18306;40.960;14.836;2023-05-10T05:28:37;16.95;;;10.75;;
31724;SDS011;18306;40.960;14.836;2023-05-10T05:31:04;23.25;;;11.45;;
31724;SDS011;18306;40.960;14.836;2023-05-10T05:33:32;16.55;;;10.27;;
31724;SDS011;18306;40.960;14.836;2023-05-10T05:36:03;21.77;;;10.65;;
31724;SDS011;18306;40.960;14.836;2023-05-10T05:38:31;17.33;;;9.77;;
31724;SDS011;18306;40.960;14.836;2023-05-10T05:40:58;21.40;;;11.15;;
31724;SDS011;18306;40.960;14.836;2023-05-10T05:43:25;25.00;;;11.63;;
31724;SDS011;18306;40.960;14.836;2023-05-10T05:45:52;18.90;;;11.07;;
31724;SDS011;18306;40.960;14.836;2023-05-10T05:48:20;20.33;;;11.10;;
31724;SDS011;18306;40.960;14.836;2023-05-10T05:50:47;27.30;;;11.73;;
31724;SDS011;18306;40.960;14.836;2023-05-10T05:53:14;72.35;;;24.73;;
31724;SDS011;18306;40.960;14.836;2023-05-10T05:55:54;75.72;;;31.80;;
31724;SDS011;18306;40.960;14.836;2023-05-10T05:58:23;31.20;;;18.80;;
31724;SDS011;18306;40.960;14.836;2023-05-10T06:00:51;24.08;;;13.32;;
31724;SDS011;18306;40.960;14.836;2023-05-10T06:03:18;16.77;;;9.48;;
31724;SDS011;18306;40.960;14.836;2023-05-10T06:05:46;18.92;;;9.25;;
31724;SDS011;18306;40.960;14.836;2023-05-10T06:08:13;22.27;;;11.05;;
31724;SDS011;18306;40.960;14.836;2023-05-10T06:10:40;18.40;;;9.73;;
31724;SDS011;18306;40.960;14.836;2023-05-10T06:13:07;16.58;;;9.45;;
31724;SDS011;18306;40.960;14.836;2023-05-10T06:15:34;21.92;;;10.38;;
31724;SDS011;18306;40.960;14.836;2023-05-10T06:18:01;12.93;;;7.93;;
31724;SDS011;18306;40.960;14.836;2023-05-10T06:20:28;14.57;;;8.45;;
31724;SDS011;18306;40.960;14.836;2023-05-10T06:22:57;15.30;;;8.52;;
31724;SDS011;18306;40.960;14.836;2023-05-10T06:25:24;11.23;;;7.18;;
31724;SDS011;18306;40.960;14.836;2023-05-10T06:27:51;9.73;;;5.75;;
31724;SDS011;18306;40.960;14.836;2023-05-10T06:30:23;14.38;;;5.93;;
31724;SDS011;18306;40.960;14.836;2023-05-10T06:32:54;7.20;;;4.25;;
31724;SDS011;18306;40.960;14.836;2023-05-10T06:35:21;12.30;;;5.93;;
31724;SDS011;18306;40.960;14.836;2023-05-10T06:37:49;7.07;;;4.65;;
31724;SDS011;18306;40.960;14.836;2023-05-10T06:40:17;10.90;;;4.43;;
31724;SDS011;18306;40.960;14.836;2023-05-10T06:42:45;5.45;;;3.95;;
31724;SDS011;18306;40.960;14.836;2023-05-10T06:45:13;10.77;;;5.20;;
31724;SDS011;18306;40.960;14.836;2023-05-10T06:47:41;12.38;;;4.43;;
31724;SDS011;18306;40.960;14.836;2023-05-10T06:50:09;5.32;;;3.65;;
31724;SDS011;18306;40.960;14.836;2023-05-10T06:52:37;6.75;;;4.55;;
31724;SDS011;18306;40.960;14.836;2023-05-10T06:55:04;7.57;;;4.03;;
31724;SDS011;18306;40.960;14.836;2023-05-10T06:57:32;5.18;;;3.40;;
31724;SDS011;18306;40.960;14.836;2023-05-10T06:59:59;9.18;;;4.05;;
31724;SDS011;18306;40.960;14.836;2023-05-10T07:02:28;8.75;;;3.92;;
31724;SDS011;18306;40.960;14.836;2023-05-10T07:04:55;5.93;;;4.15;;
31724;SDS011;18306;40.960;14.836;2023-05-10T07:07:22;5.47;;;3.70;;
31724;SDS011;18306;40.960;14.836;2023-05-10T07:09:49;13.82;;;3.83;;
31724;SDS011;18306;40.960;14.836;2023-05-10T07:12:17;6.50;;;3.70;;
31724;SDS011;18306;40.960;14.836;2023-05-10T07:14:44;6.15;;;3.53;;
31724;SDS011;18306;40.960;14.836;2023-05-10T07:17:13;4.78;;;3.25;;
31724;SDS011;18306;40.960;14.836;2023-05-10T07:19:42;6.55;;;3.92;;
31724;SDS011;18306;40.960;14.836;2023-05-10T07:22:09;6.80;;;3.72;;
31724;SDS011;18306;40.960;14.836;2023-05-10T07:24:36;3.95;;;2.88;;
31724;SDS011;18306;40.960;14.836;2023-05-10T07:27:03;4.38;;;3.28;;
31724;SDS011;18306;40.960;14.836;2023-05-10T07:29:39;4.30;;;3.20;;
31724;SDS011;18306;40.960;14.836;2023-05-10T07:32:06;8.20;;;3.50;;
31724;SDS011;18306;40.960;14.836;2023-05-10T07:34:33;6.50;;;3.50;;
31724;SDS011;18306;40.960;14.836;2023-05-10T07:37:08;4.75;;;3.38;;
31724;SDS011;18306;40.960;14.836;2023-05-10T07:39:41;6.57;;;2.97;;
31724;SDS011;18306;40.960;14.836;2023-05-10T07:42:12;8.25;;;4.05;;
31724;SDS011;18306;40.960;14.836;2023-05-10T07:44:40;5.93;;;3.42;;
31724;SDS011;18306;40.960;14.836;2023-05-10T07:47:10;6.68;;;3.45;;
31724;SDS011;18306;40.960;14.836;2023-05-10T07:49:37;7.88;;;3.20;;
31724;SDS011;18306;40.960;14.836;2023-05-10T07:52:12;3.92;;;2.65;;
31724;SDS011;18306;40.960;14.836;2023-05-10T07:54:39;9.75;;;3.80;;
31724;SDS011;18306;40.960;14.836;2023-05-10T07:57:15;6.47;;;3.25;;
31724;SDS011;18306;40.960;14.836;2023-05-10T07:59:46;5.25;;;3.58;;
31724;SDS011;18306;40.960;14.836;2023-05-10T08:02:15;10.65;;;3.72;;
31724;SDS011;18306;40.960;14.836;2023-05-10T08:04:42;3.72;;;2.70;;
31724;SDS011;18306;40.960;14.836;2023-05-10T08:07:10;7.50;;;4.05;;
31724;SDS011;18306;40.960;14.836;2023-05-10T08:09:37;4.85;;;2.95;;
31724;SDS011;18306;40.960;14.836;2023-05-10T08:12:04;6.90;;;4.30;;
31724;SDS011;18306;40.960;14.836;2023-05-10T08:14:31;5.55;;;3.08;;
31724;SDS011;18306;40.960;14.836;2023-05-10T08:16:58;6.88;;;4.18;;
31724;SDS011;18306;40.960;14.836;2023-05-10T08:19:25;12.98;;;4.00;;
31724;SDS011;18306;40.960;14.836;2023-05-10T08:21:52;5.60;;;3.95;;
31724;SDS011;18306;40.960;14.836;2023-05-10T08:24:27;8.13;;;3.55;;
31724;SDS011;18306;40.960;14.836;2023-05-10T08:27:04;7.90;;;4.13;;
31724;SDS011;18306;40.960;14.836;2023-05-10T08:29:32;7.50;;;4.25;;
31724;SDS011;18306;40.960;14.836;2023-05-10T08:31:59;5.20;;;3.47;;
31724;SDS011;18306;40.960;14.836;2023-05-10T08:34:27;7.78;;;3.05;;
31724;SDS011;18306;40.960;14.836;2023-05-10T08:36:54;6.32;;;3.67;;
31724;SDS011;18306;40.960;14.836;2023-05-10T08:39:21;6.80;;;3.63;;
31724;SDS011;18306;40.960;14.836;2023-05-10T08:41:49;7.82;;;3.42;;
31724;SDS011;18306;40.960;14.836;2023-05-10T08:44:31;7.82;;;2.85;;
31724;SDS011;18306;40.960;14.836;2023-05-10T08:47:05;7.95;;;3.55;;
31724;SDS011;18306;40.960;14.836;2023-05-10T08:49:33;5.45;;;3.20;;
31724;SDS011;18306;40.960;14.836;2023-05-10T08:52:03;8.25;;;3.33;;
31724;SDS011;18306;40.960;14.836;2023-05-10T08:54:31;7.18;;;3.13;;
31724;SDS011;18306;40.960;14.836;2023-05-10T08:56:59;7.55;;;3.75;;
31724;SDS011;18306;40.960;14.836;2023-05-10T08:59:27;4.95;;;3.50;;
31724;SDS011;18306;40.960;14.836;2023-05-10T09:01:55;7.18;;;3.42;;
31724;SDS011;18306;40.960;14.836;2023-05-10T09:04:25;5.85;;;2.58;;
31724;SDS011;18306;40.960;14.836;2023-05-10T09:06:53;5.00;;;2.85;;
31724;SDS011;18306;40.960;14.836;2023-05-10T09:09:20;5.63;;;2.50;;
31724;SDS011;18306;40.960;14.836;2023-05-10T09:11:49;9.90;;;2.35;;
31724;SDS011;18306;40.960;14.836;2023-05-10T09:14:18;2.83;;;1.90;;
31724;SDS011;18306;40.960;14.836;2023-05-10T09:16:48;2.40;;;1.42;;
31724;SDS011;18306;40.960;14.836;2023-05-10T09:19:15;3.20;;;1.83;;
31724;SDS011;18306;40.960;14.836;2023-05-10T09:21:42;2.55;;;1.45;;
31724;SDS011;18306;40.960;14.836;2023-05-10T09:24:10;4.47;;;1.98;;
31724;SDS011;18306;40.960;14.836;2023-05-10T09:26:47;1.55;;;1.20;;
31724;SDS011;18306;40.960;14.836;2023-05-10T09:29:15;3.90;;;1.73;;
31724;SDS011;18306;40.960;14.836;2023-05-10T09:31:50;2.97;;;1.70;;
31724;SDS011;18306;40.960;14.836;2023-05-10T09:34:18;6.28;;;1.75;;
31724;SDS011;18306;40.960;14.836;2023-05-10T09:36:51;3.70;;;2.20;;
31724;SDS011;18306;40.960;14.836;2023-05-10T09:39:19;3.03;;;1.60;;
31724;SDS011;18306;40.960;14.836;2023-05-10T09:41:47;2.78;;;1.80;;
31724;SDS011;18306;40.960;14.836;2023-05-10T09:44:16;2.33;;;1.60;;
31724;SDS011;18306;40.960;14.836;2023-05-10T09:46:50;3.33;;;1.48;;
31724;SDS011;18306;40.960;14.836;2023-05-10T09:49:19;2.75;;;1.65;;
31724;SDS011;18306;40.960;14.836;2023-05-10T09:51:57;2.92;;;1.42;;
31724;SDS011;18306;40.960;14.836;2023-05-10T09:54:32;3.08;;;1.60;;
31724;SDS011;18306;40.960;14.836;2023-05-10T09:57:00;1.50;;;1.08;;
31724;SDS011;18306;40.960;14.836;2023-05-10T09:59:28;1.23;;;0.98;;
31724;SDS011;18306;40.960;14.836;2023-05-10T10:01:56;2.83;;;1.17;;
31724;SDS011;18306;40.960;14.836;2023-05-10T10:04:25;1.50;;;0.80;;
31724;SDS011;18306;40.960;14.836;2023-05-10T10:07:00;1.15;;;0.90;;
31724;SDS011;18306;40.960;14.836;2023-05-10T10:09:28;5.07;;;1.15;;
31724;SDS011;18306;40.960;14.836;2023-05-10T10:11:56;1.67;;;1.05;;
31724;SDS011;18306;40.960;14.836;2023-05-10T10:14:23;4.65;;;1.10;;
31724;SDS011;18306;40.960;14.836;2023-05-10T10:16:50;2.70;;;1.48;;
31724;SDS011;18306;40.960;14.836;2023-05-10T10:19:18;1.65;;;0.88;;
31724;SDS011;18306;40.960;14.836;2023-05-10T10:21:47;2.97;;;1.50;;
31724;SDS011;18306;40.960;14.836;2023-05-10T10:24:14;3.78;;;1.88;;
31724;SDS011;18306;40.960;14.836;2023-05-10T10:26:41;2.03;;;1.40;;
31724;SDS011;18306;40.960;14.836;2023-05-10T10:29:26;2.55;;;1.73;;
31724;SDS011;18306;40.960;14.836;2023-05-10T10:32:19;3.50;;;1.95;;
31724;SDS011;18306;40.960;14.836;2023-05-10T10:34:53;13.07;;;1.95;;
31724;SDS011;18306;40.960;14.836;2023-05-10T10:37:22;3.55;;;1.73;;
31724;SDS011;18306;40.960;14.836;2023-05-10T10:39:53;5.00;;;2.22;;
31724;SDS011;18306;40.960;14.836;2023-05-10T10:45:13;3.17;;;2.28;;
31724;SDS011;18306;40.960;14.836;2023-05-10T10:47:40;4.72;;;2.08;;
31724;SDS011;18306;40.960;14.836;2023-05-10T10:50:09;3.60;;;2.40;;
31724;SDS011;18306;40.960;14.836;2023-05-10T10:55:20;3.38;;;2.30;;
31724;SDS011;18306;40.960;14.836;2023-05-10T10:57:56;9.65;;;2.42;;
31724;SDS011;18306;40.960;14.836;2023-05-10T11:00:36;9.13;;;2.28;;
31724;SDS011;18306;40.960;14.836;2023-05-10T11:03:08;4.72;;;2.78;;
31724;SDS011;18306;40.960;14.836;2023-05-10T11:05:43;3.67;;;2.53;;
31724;SDS011;18306;40.960;14.836;2023-05-10T11:11:13;4.10;;;2.63;;
31724;SDS011;18306;40.960;14.836;2023-05-10T11:13:45;3.15;;;2.00;;
31724;SDS011;18306;40.960;14.836;2023-05-10T11:16:17;4.97;;;2.55;;
31724;SDS011;18306;40.960;14.836;2023-05-10T11:19:05;3.08;;;1.85;;
31724;SDS011;18306;40.960;14.836;2023-05-10T11:21:44;4.30;;;2.65;;
31724;SDS011;18306;40.960;14.836;2023-05-10T11:24:14;4.15;;;2.17;;
31724;SDS011;18306;40.960;14.836;2023-05-10T11:26:43;4.30;;;2.58;;
31724;SDS011;18306;40.960;14.836;2023-05-10T11:29:12;4.30;;;2.05;;
31724;SDS011;18306;40.960;14.836;2023-05-10T11:31:44;4.50;;;2.67;;
31724;SDS011;18306;40.960;14.836;2023-05-10T11:34:23;4.80;;;2.55;;
31724;SDS011;18306;40.960;14.836;2023-05-10T11:36:57;3.58;;;2.00;;
31724;SDS011;18306;40.960;14.836;2023-05-10T11:39:28;2.10;;;1.90;;
31724;SDS011;18306;40.960;14.836;2023-05-10T11:42:00;5.13;;;2.20;;
31724;SDS011;18306;40.960;14.836;2023-05-10T11:44:35;1.50;;;1.35;;
31724;SDS011;18306;40.960;14.836;2023-05-10T11:47:12;2.25;;;1.80;;
31724;SDS011;18306;40.960;14.836;2023-05-10T11:49:45;1.77;;;1.48;;
31724;SDS011;18306;40.960;14.836;2023-05-10T11:52:13;2.70;;;1.63;;
31724;SDS011;18306;40.960;14.836;2023-05-10T11:54:51;6.00;;;1.95;;
31724;SDS011;18306;40.960;14.836;2023-05-10T11:57:21;2.03;;;1.33;;
31724;SDS011;18306;40.960;14.836;2023-05-10T12:00:05;1.65;;;1.30;;
31724;SDS011;18306;40.960;14.836;2023-05-10T12:02:33;2.85;;;1.70;;
31724;SDS011;18306;40.960;14.836;2023-05-10T12:05:01;2.30;;;1.77;;
31724;SDS011;18306;40.960;14.836;2023-05-10T12:07:30;5.00;;;2.42;;
31724;SDS011;18306;40.960;14.836;2023-05-10T12:12:37;5.57;;;3.30;;
31724;SDS011;18306;40.960;14.836;2023-05-10T12:15:05;4.47;;;2.95;;
31724;SDS011;18306;40.960;14.836;2023-05-10T12:17:57;3.90;;;2.75;;
31724;SDS011;18306;40.960;14.836;2023-05-10T12:20:24;6.05;;;3.30;;
31724;SDS011;18306;40.960;14.836;2023-05-10T12:22:55;5.07;;;3.33;;
31724;SDS011;18306;40.960;14.836;2023-05-10T12:25:29;4.88;;;3.17;;
31724;SDS011;18306;40.960;14.836;2023-05-10T12:27:58;6.50;;;4.15;;
31724;SDS011;18306;40.960;14.836;2023-05-10T12:30:29;4.55;;;3.47;;
31724;SDS011;18306;40.960;14.836;2023-05-10T12:33:02;7.18;;;4.22;;
31724;SDS011;18306;40.960;14.836;2023-05-10T12:35:51;6.10;;;3.80;;
31724;SDS011;18306;40.960;14.836;2023-05-10T12:38:37;5.78;;;3.63;;
31724;SDS011;18306;40.960;14.836;2023-05-10T12:41:08;5.50;;;3.83;;
31724;SDS011;18306;40.960;14.836;2023-05-10T12:43:46;3.03;;;2.50;;
31724;SDS011;18306;40.960;14.836;2023-05-10T12:46:19;5.07;;;2.78;;
31724;SDS011;18306;40.960;14.836;2023-05-10T12:48:48;3.90;;;2.53;;
31724;SDS011;18306;40.960;14.836;2023-05-10T12:51:22;2.92;;;2.20;;
31724;SDS011;18306;40.960;14.836;2023-05-10T12:53:51;2.15;;;1.73;;
31724;SDS011;18306;40.960;14.836;2023-05-10T12:56:22;4.22;;;1.92;;
31724;SDS011;18306;40.960;14.836;2023-05-10T12:58:50;1.98;;;1.60;;
31724;SDS011;18306;40.960;14.836;2023-05-10T13:01:18;1.92;;;1.52;;
31724;SDS011;18306;40.960;14.836;2023-05-10T13:03:45;1.58;;;1.17;;
31724;SDS011;18306;40.960;14.836;2023-05-10T13:06:13;2.03;;;1.15;;
31724;SDS011;18306;40.960;14.836;2023-05-10T13:08:40;4.03;;;1.45;;
31724;SDS011;18306;40.960;14.836;2023-05-10T13:11:08;2.35;;;1.73;;
31724;SDS011;18306;40.960;14.836;2023-05-10T13:13:35;4.47;;;3.10;;
31724;SDS011;18306;40.960;14.836;2023-05-10T13:16:02;3.05;;;1.70;;
31724;SDS011;18306;40.960;14.836;2023-05-10T13:18:30;1.40;;;1.00;;
31724;SDS011;18306;40.960;14.836;2023-05-10T13:20:57;1.17;;;0.88;;
31724;SDS011;18306;40.960;14.836;2023-05-10T13:23:24;2.33;;;1.13;;
31724;SDS011;18306;40.960;14.836;2023-05-10T13:25:52;4.22;;;2.25;;
31724;SDS011;18306;40.960;14.836;2023-05-10T13:28:19;15.27;;;7.90;;
31724;SDS011;18306;40.960;14.836;2023-05-10T13:30:47;2.92;;;2.05;;
31724;SDS011;18306;40.960;14.836;2023-05-10T13:33:14;2.17;;;0.98;;
31724;SDS011;18306;40.960;14.836;2023-05-10T13:35:42;1.70;;;1.33;;
31724;SDS011;18306;40.960;14.836;2023-05-10T13:38:14;14.95;;;7.57;;
31724;SDS011;18306;40.960;14.836;2023-05-10T13:40:42;11.93;;;5.32;;
31724;SDS011;18306;40.960;14.836;2023-05-10T13:43:19;2.83;;;2.17;;
31724;SDS011;18306;40.960;14.836;2023-05-10T13:45:51;7.75;;;2.88;;
31724;SDS011;18306;40.960;14.836;2023-05-10T13:48:20;4.63;;;2.72;;
31724;SDS011;18306;40.960;14.836;2023-05-10T13:50:47;3.65;;;2.30;;
31724;SDS011;18306;40.960;14.836;2023-05-10T13:53:14;1.70;;;1.60;;
31724;SDS011;18306;40.960;14.836;2023-05-10T13:55:41;1.35;;;1.13;;
31724;SDS011;18306;40.960;14.836;2023-05-10T14:03:41;1.13;;;0.95;;
31724;SDS011;18306;40.960;14.836;2023-05-10T14:06:08;3.83;;;1.85;;
31724;SDS011;18306;40.960;14.836;2023-05-10T14:08:35;4.03;;;3.17;;
31724;SDS011;18306;40.960;14.836;2023-05-10T14:11:02;5.75;;;4.03;;
31724;SDS011;18306;40.960;14.836;2023-05-10T14:13:30;2.72;;;1.55;;
31724;SDS011;18306;40.960;14.836;2023-05-10T14:15:57;3.53;;;2.17;;
31724;SDS011;18306;40.960;14.836;2023-05-10T14:18:26;4.07;;;1.98;;
31724;SDS011;18306;40.960;14.836;2023-05-10T14:20:54;28.13;;;14.48;;
31724;SDS011;18306;40.960;14.836;2023-05-10T14:23:22;15.50;;;6.25;;
31724;SDS011;18306;40.960;14.836;2023-05-10T14:25:54;24.75;;;8.57;;
31724;SDS011;18306;40.960;14.836;2023-05-10T14:28:24;23.92;;;6.22;;
31724;SDS011;18306;40.960;14.836;2023-05-10T14:30:52;17.17;;;6.53;;
31724;SDS011;18306;40.960;14.836;2023-05-10T14:33:19;13.60;;;6.28;;
31724;SDS011;18306;40.960;14.836;2023-05-10T14:35:48;21.35;;;8.70;;
31724;SDS011;18306;40.960;14.836;2023-05-10T14:38:15;6.88;;;3.28;;
31724;SDS011;18306;40.960;14.836;2023-05-10T14:40:42;11.63;;;4.20;;
31724;SDS011;18306;40.960;14.836;2023-05-10T14:43:09;6.70;;;2.40;;
31724;SDS011;18306;40.960;14.836;2023-05-10T14:45:36;8.25;;;3.78;;
31724;SDS011;18306;40.960;14.836;2023-05-10T14:48:03;6.22;;;2.85;;
31724;SDS011;18306;40.960;14.836;2023-05-10T14:50:31;9.05;;;3.90;;
31724;SDS011;18306;40.960;14.836;2023-05-10T14:52:58;7.85;;;3.30;;
31724;SDS011;18306;40.960;14.836;2023-05-10T14:55:25;5.90;;;2.63;;
31724;SDS011;18306;40.960;14.836;2023-05-10T14:57:52;5.05;;;2.17;;
31724;SDS011;18306;40.960;14.836;2023-05-10T15:00:19;7.40;;;2.53;;
31724;SDS011;18306;40.960;14.836;2023-05-10T15:02:47;2.83;;;1.48;;
31724;SDS011;18306;40.960;14.836;2023-05-10T15:05:14;2.25;;;1.48;;
31724;SDS011;18306;40.960;14.836;2023-05-10T15:07:41;2.70;;;1.42;;
31724;SDS011;18306;40.960;14.836;2023-05-10T15:10:10;1.27;;;1.17;;
31724;SDS011;18306;40.960;14.836;2023-05-10T15:12:37;1.15;;;1.08;;
31724;SDS011;18306;40.960;14.836;2023-05-10T15:15:05;3.22;;;2.00;;
31724;SDS011;18306;40.960;14.836;2023-05-10T15:17:33;1.80;;;1.25;;